Time,TemperatureF,DewpointF,PressureIn,WindDirection,WindDirectionDegrees,WindSpeedMPH,WindSpeedGustMPH,Humidity,HourlyPrecipIn,Conditions,Clouds,dailyrainin,SoftwareType,DateUTC
2013-05-14 00:01:00,57.9,43.2,30.03,SW,221,0.0,7.0,58,0.00,,,0.00,meteohub,2013-05-14 05:01:00,
2013-05-14 00:06:00,57.6,43.3,30.02,SW,221,0.0,7.0,59,0.00,,,0.00,meteohub,2013-05-14 05:06:00,
2013-05-14 00:11:00,57.6,43.3,30.03,SSW,210,0.0,7.0,59,0.00,,,0.00,meteohub,2013-05-14 05:11:00,
2013-05-14 00:16:00,57.4,43.7,30.02,SSW,213,0.0,6.0,60,0.00,,,0.00,meteohub,2013-05-14 05:16:00,
2013-05-14 00:21:00,57.4,43.2,30.02,SW,215,0.0,6.0,59,0.00,,,0.00,meteohub,2013-05-14 05:21:00,
2013-05-14 00:26:00,57.2,43.5,30.01,SSW,211,0.0,6.0,60,0.00,,,0.00,meteohub,2013-05-14 05:26:00,
2013-05-14 00:31:00,57.0,43.3,30.01,SW,218,0.0,6.0,60,0.00,,,0.00,meteohub,2013-05-14 05:31:00,
2013-05-14 00:36:00,57.0,43.7,30.01,SW,216,5.0,6.0,61,0.00,,,0.00,meteohub,2013-05-14 05:36:00,
2013-05-14 00:41:00,57.0,43.7,30.01,SW,227,8.0,10.0,61,0.00,,,0.00,meteohub,2013-05-14 05:41:00,
2013-05-14 00:46:00,57.2,43.0,30.00,SSW,207,6.0,10.0,59,0.00,,,0.00,meteohub,2013-05-14 05:46:00,
2013-05-14 00:51:00,57.2,43.5,30.00,SSW,212,0.0,11.0,60,0.00,,,0.00,meteohub,2013-05-14 05:51:00,
2013-05-14 00:56:00,57.4,43.2,30.00,WSW,245,6.0,12.0,59,0.00,,,0.00,meteohub,2013-05-14 05:56:00,
2013-05-14 01:01:00,57.4,43.2,29.99,SSW,207,0.0,12.0,59,0.00,,,0.00,meteohub,2013-05-14 06:01:00,
2013-05-14 01:06:00,57.2,42.6,29.99,SSW,208,0.0,12.0,58,0.00,,,0.00,meteohub,2013-05-14 06:06:00,
2013-05-14 01:11:00,56.8,43.2,29.99,SSW,199,5.0,8.0,60,0.00,,,0.00,meteohub,2013-05-14 06:11:00,
2013-05-14 01:16:00,56.8,43.2,29.99,SW,219,0.0,8.0,60,0.00,,,0.00,meteohub,2013-05-14 06:16:00,
2013-05-14 01:21:00,56.7,43.0,29.98,SW,220,0.0,10.0,60,0.00,,,0.00,meteohub,2013-05-14 06:21:00,
2013-05-14 01:26:00,56.7,42.4,29.98,SW,230,0.0,10.0,59,0.00,,,0.00,meteohub,2013-05-14 06:26:00,
2013-05-14 01:31:00,56.7,42.1,29.97,SSW,211,0.0,10.0,58,0.00,,,0.00,meteohub,2013-05-14 06:31:00,
2013-05-14 01:36:00,56.5,42.3,29.97,SSW,212,0.0,9.0,59,0.00,,,0.00,meteohub,2013-05-14 06:36:00,
2013-05-14 01:41:00,56.5,41.9,29.97,SSW,193,0.0,6.0,58,0.00,,,0.00,meteohub,2013-05-14 06:41:00,
2013-05-14 01:47:00,56.5,42.3,29.96,SW,214,0.0,9.0,59,0.00,,,0.00,meteohub,2013-05-14 06:47:00,
2013-05-14 01:52:00,56.5,41.9,29.96,SSW,211,0.0,9.0,58,0.00,,,0.00,meteohub,2013-05-14 06:52:00,
2013-05-14 01:57:00,56.5,42.3,29.96,SW,224,8.0,9.0,59,0.00,,,0.00,meteohub,2013-05-14 06:57:00,
2013-05-14 02:02:00,56.7,42.1,29.95,SW,218,0.0,9.0,58,0.00,,,0.00,meteohub,2013-05-14 07:02:00,
2013-05-14 02:07:00,56.5,41.9,29.95,SW,222,6.0,14.0,58,0.00,,,0.00,meteohub,2013-05-14 07:07:00,
2013-05-14 02:12:00,56.5,42.3,29.95,SSW,194,8.0,14.0,59,0.00,,,0.00,meteohub,2013-05-14 07:12:00,
2013-05-14 02:17:00,56.7,41.2,29.94,SW,225,0.0,13.0,56,0.00,,,0.00,meteohub,2013-05-14 07:17:00,
2013-05-14 02:22:00,57.0,41.5,29.94,SW,235,7.0,13.0,56,0.00,,,0.00,meteohub,2013-05-14 07:22:00,
2013-05-14 02:27:00,57.2,41.7,29.94,SW,217,9.0,12.0,56,0.00,,,0.00,meteohub,2013-05-14 07:27:00,
2013-05-14 02:32:00,57.0,41.5,29.94,SSW,197,8.0,12.0,56,0.00,,,0.00,meteohub,2013-05-14 07:32:00,
2013-05-14 02:37:00,57.0,41.5,29.94,WSW,245,9.0,13.0,56,0.00,,,0.00,meteohub,2013-05-14 07:37:00,
2013-05-14 02:42:00,57.0,41.5,29.94,SW,218,8.0,16.0,56,0.00,,,0.00,meteohub,2013-05-14 07:42:00,
2013-05-14 02:47:00,56.8,41.7,29.94,SW,232,8.0,16.0,57,0.00,,,0.00,meteohub,2013-05-14 07:47:00,
2013-05-14 02:52:00,56.7,42.1,29.94,SW,220,8.0,16.0,58,0.00,,,0.00,meteohub,2013-05-14 07:52:00,
2013-05-14 02:57:00,56.5,42.3,29.93,SSW,210,9.0,12.0,59,0.00,,,0.00,meteohub,2013-05-14 07:57:00,
2013-05-14 03:02:00,56.3,42.1,29.93,SW,235,5.0,12.0,59,0.00,,,0.00,meteohub,2013-05-14 08:02:00,
2013-05-14 03:07:00,56.1,42.4,29.93,SSW,207,5.0,15.0,60,0.00,,,0.00,meteohub,2013-05-14 08:07:00,
2013-05-14 03:12:00,56.1,42.4,29.93,WSW,240,9.0,15.0,60,0.00,,,0.00,meteohub,2013-05-14 08:12:00,
2013-05-14 03:17:00,55.9,42.6,29.93,WSW,239,6.0,15.0,61,0.00,,,0.00,meteohub,2013-05-14 08:17:00,
2013-05-14 03:23:00,55.8,43.0,29.93,WSW,242,0.0,13.0,62,0.00,,,0.00,meteohub,2013-05-14 08:23:00,
2013-05-14 03:28:00,55.8,42.4,29.92,SW,216,6.0,13.0,61,0.00,,,0.00,meteohub,2013-05-14 08:28:00,
2013-05-14 03:33:00,55.6,42.8,29.93,SW,218,5.0,16.0,62,0.00,,,0.00,meteohub,2013-05-14 08:33:00,
2013-05-14 03:38:00,55.6,43.2,29.92,SW,217,8.0,16.0,63,0.00,,,0.00,meteohub,2013-05-14 08:38:00,
2013-05-14 03:43:00,55.4,43.0,29.92,SSW,213,5.0,16.0,63,0.00,,,0.00,meteohub,2013-05-14 08:43:00,
2013-05-14 03:48:00,55.2,43.3,29.92,SW,218,0.0,13.0,64,0.00,,,0.00,meteohub,2013-05-14 08:48:00,
2013-05-14 03:53:00,55.2,43.3,29.91,SW,230,10.0,13.0,64,0.00,,,0.00,meteohub,2013-05-14 08:53:00,
2013-05-14 03:58:00,55.0,43.5,29.91,SW,232,6.0,12.0,65,0.00,,,0.00,meteohub,2013-05-14 08:58:00,
2013-05-14 04:03:00,54.9,43.7,29.91,SW,232,7.0,12.0,66,0.00,,,0.00,meteohub,2013-05-14 09:03:00,
2013-05-14 04:08:00,54.9,43.3,29.91,WSW,252,5.0,13.0,65,0.00,,,0.00,meteohub,2013-05-14 09:08:00,
2013-05-14 04:13:00,54.9,43.7,29.91,SSW,210,6.0,13.0,66,0.00,,,0.00,meteohub,2013-05-14 09:13:00,
2013-05-14 04:18:00,54.9,43.7,29.91,WSW,245,8.0,11.0,66,0.00,,,0.00,meteohub,2013-05-14 09:18:00,
2013-05-14 04:23:00,54.9,43.7,29.90,SW,215,9.0,13.0,66,0.00,,,0.00,meteohub,2013-05-14 09:23:00,
2013-05-14 04:28:00,54.7,43.9,29.90,West,263,7.0,13.0,67,0.00,,,0.00,meteohub,2013-05-14 09:28:00,
2013-05-14 04:33:00,54.9,44.1,29.90,SW,226,5.0,13.0,67,0.00,,,0.00,meteohub,2013-05-14 09:33:00,
2013-05-14 04:38:00,54.9,44.1,29.89,WSW,254,6.0,14.0,67,0.00,,,0.00,meteohub,2013-05-14 09:38:00,
2013-05-14 04:43:00,54.9,44.1,29.89,SW,221,0.0,14.0,67,0.00,,,0.00,meteohub,2013-05-14 09:43:00,
2013-05-14 04:48:00,54.7,44.2,29.89,WSW,238,0.0,14.0,68,0.00,,,0.00,meteohub,2013-05-14 09:48:00,
2013-05-14 04:53:00,54.7,44.2,29.89,SW,231,0.0,14.0,68,0.00,,,0.00,meteohub,2013-05-14 09:53:00,
2013-05-14 04:58:00,54.7,44.8,29.89,SSW,213,5.0,14.0,69,0.00,,,0.00,meteohub,2013-05-14 09:58:00,
2013-05-14 05:03:00,54.7,44.8,29.89,SSW,206,12.0,14.0,69,0.00,,,0.00,meteohub,2013-05-14 10:03:00,
2013-05-14 05:08:00,54.7,44.8,29.89,SW,218,5.0,14.0,69,0.00,,,0.00,meteohub,2013-05-14 10:08:00,
2013-05-14 05:13:00,54.5,45.3,29.89,SW,228,6.0,14.0,71,0.00,,,0.00,meteohub,2013-05-14 10:13:00,
2013-05-14 05:19:00,54.3,45.1,29.89,SW,225,5.0,14.0,71,0.00,,,0.00,meteohub,2013-05-14 10:19:00,
2013-05-14 05:24:00,54.3,45.1,29.89,SSW,198,8.0,13.0,71,0.00,,,0.00,meteohub,2013-05-14 10:24:00,
2013-05-14 05:29:00,54.3,45.1,29.89,SW,218,8.0,13.0,71,0.00,,,0.00,meteohub,2013-05-14 10:29:00,
2013-05-14 05:34:00,54.3,45.1,29.89,SW,218,6.0,12.0,71,0.00,,,0.00,meteohub,2013-05-14 10:34:00,
2013-05-14 05:39:00,54.5,45.3,29.88,SW,228,10.0,12.0,71,0.00,,,0.00,meteohub,2013-05-14 10:39:00,
2013-05-14 05:44:00,54.7,45.5,29.88,SW,235,8.0,12.0,71,0.00,,,0.00,meteohub,2013-05-14 10:44:00,
2013-05-14 05:49:00,54.3,45.5,29.88,WSW,243,8.0,14.0,72,0.00,,,0.00,meteohub,2013-05-14 10:49:00,
2013-05-14 05:54:00,54.1,45.3,29.88,SSW,212,11.0,14.0,72,0.00,,,0.00,meteohub,2013-05-14 10:54:00,
2013-05-14 05:59:00,54.1,45.7,29.88,SW,230,6.0,14.0,73,0.00,,,0.00,meteohub,2013-05-14 10:59:00,
2013-05-14 06:04:00,54.3,45.9,29.88,SW,224,0.0,14.0,73,0.00,,,0.00,meteohub,2013-05-14 11:04:00,
2013-05-14 06:09:00,54.3,45.9,29.88,SW,214,9.0,14.0,73,0.00,,,0.00,meteohub,2013-05-14 11:09:00,
2013-05-14 06:14:00,54.3,45.9,29.88,SW,225,8.0,14.0,73,0.00,,,0.00,meteohub,2013-05-14 11:14:00,
2013-05-14 06:19:00,54.5,46.0,29.88,SSW,211,8.0,12.0,73,0.00,,,0.00,meteohub,2013-05-14 11:19:00,
2013-05-14 06:25:00,54.5,46.0,29.87,SW,218,9.0,13.0,73,0.00,,,0.00,meteohub,2013-05-14 11:25:00,
2013-05-14 06:30:00,54.5,46.4,29.87,SW,220,0.0,13.0,74,0.00,,,0.00,meteohub,2013-05-14 11:30:00,
2013-05-14 06:35:00,54.3,46.2,29.87,WSW,246,6.0,12.0,74,0.00,,,0.00,meteohub,2013-05-14 11:35:00,
2013-05-14 06:40:00,54.7,46.6,29.87,SW,219,9.0,12.0,74,0.00,,,0.00,meteohub,2013-05-14 11:40:00,
2013-05-14 06:45:00,54.9,46.8,29.87,SW,218,10.0,12.0,74,0.00,,,0.00,meteohub,2013-05-14 11:45:00,
2013-05-14 06:50:00,54.9,46.8,29.86,SSW,211,9.0,15.0,74,0.00,,,0.00,meteohub,2013-05-14 11:50:00,
2013-05-14 06:55:00,55.2,47.1,29.86,SSW,213,0.0,15.0,74,0.00,,,0.00,meteohub,2013-05-14 11:55:00,
2013-05-14 07:00:00,55.6,47.5,29.86,SW,215,7.0,12.0,74,0.00,,,0.00,meteohub,2013-05-14 12:00:00,
2013-05-14 07:05:00,55.9,47.8,29.86,WSW,238,7.0,12.0,74,0.00,,,0.00,meteohub,2013-05-14 12:05:00,
2013-05-14 07:10:00,56.1,48.0,29.86,WSW,238,0.0,15.0,74,0.00,,,0.00,meteohub,2013-05-14 12:10:00,
2013-05-14 07:15:00,56.5,48.4,29.86,WSW,257,5.0,15.0,74,0.00,,,0.00,meteohub,2013-05-14 12:15:00,
2013-05-14 07:20:00,57.0,48.4,29.86,SW,220,8.0,15.0,73,0.00,,,0.00,meteohub,2013-05-14 12:20:00,
2013-05-14 07:25:00,57.4,48.7,29.86,WSW,252,7.0,14.0,73,0.00,,,0.00,meteohub,2013-05-14 12:25:00,
2013-05-14 07:30:00,57.9,49.3,29.86,SSW,201,13.0,13.0,73,0.00,,,0.00,meteohub,2013-05-14 12:30:00,
2013-05-14 07:35:00,58.5,49.1,29.86,West,263,0.0,14.0,71,0.00,,,0.00,meteohub,2013-05-14 12:35:00,
2013-05-14 07:40:00,59.0,49.6,29.86,SW,226,10.0,14.0,71,0.00,,,0.00,meteohub,2013-05-14 12:40:00,
2013-05-14 07:45:00,59.4,49.6,29.85,West,259,0.0,14.0,70,0.00,,,0.00,meteohub,2013-05-14 12:45:00,
2013-05-14 07:50:00,59.5,50.2,29.85,SW,214,11.0,14.0,71,0.00,,,0.00,meteohub,2013-05-14 12:50:00,
2013-05-14 07:55:00,60.1,50.2,29.85,SW,217,6.0,14.0,70,0.00,,,0.00,meteohub,2013-05-14 12:55:00,
2013-05-14 08:01:00,60.4,50.2,29.85,SW,220,10.0,17.0,69,0.00,,,0.00,meteohub,2013-05-14 13:01:00,
2013-05-14 08:06:00,61.0,50.7,29.85,SW,222,0.0,17.0,69,0.00,,,0.00,meteohub,2013-05-14 13:06:00,
2013-05-14 08:11:00,61.3,51.4,29.85,SSW,205,11.0,17.0,70,0.00,,,0.00,meteohub,2013-05-14 13:11:00,
2013-05-14 08:16:00,61.3,51.4,29.84,SSE,168,5.0,16.0,70,0.00,,,0.00,meteohub,2013-05-14 13:16:00,
2013-05-14 08:21:00,62.1,51.4,29.84,West,265,5.0,16.0,68,0.00,,,0.00,meteohub,2013-05-14 13:21:00,
2013-05-14 08:26:00,62.4,52.2,29.84,West,272,6.0,14.0,69,0.00,,,0.00,meteohub,2013-05-14 13:26:00,
2013-05-14 08:31:00,62.8,52.0,29.84,SSW,213,7.0,14.0,68,0.00,,,0.00,meteohub,2013-05-14 13:31:00,
2013-05-14 08:36:00,63.1,52.3,29.84,WSW,253,8.0,13.0,68,0.00,,,0.00,meteohub,2013-05-14 13:36:00,
2013-05-14 08:41:00,63.5,52.3,29.84,SW,221,9.0,12.0,67,0.00,,,0.00,meteohub,2013-05-14 13:41:00,
2013-05-14 08:46:00,63.9,52.3,29.84,SW,236,8.0,13.0,66,0.00,,,0.00,meteohub,2013-05-14 13:46:00,
2013-05-14 08:51:00,64.2,53.1,29.84,South,190,11.0,16.0,67,0.00,,,0.00,meteohub,2013-05-14 13:51:00,
2013-05-14 08:56:00,64.6,52.9,29.83,SSW,208,9.0,16.0,66,0.00,,,0.00,meteohub,2013-05-14 13:56:00,
2013-05-14 09:01:00,65.1,53.1,29.83,SSW,209,0.0,16.0,65,0.00,,,0.00,meteohub,2013-05-14 14:01:00,
2013-05-14 09:06:00,65.5,53.4,29.83,SW,223,0.0,14.0,65,0.00,,,0.00,meteohub,2013-05-14 14:06:00,
2013-05-14 09:11:00,66.0,54.3,29.84,WSW,255,0.0,14.0,66,0.00,,,0.00,meteohub,2013-05-14 14:11:00,
2013-05-14 09:16:00,66.4,53.8,29.83,SSW,197,5.0,14.0,64,0.00,,,0.00,meteohub,2013-05-14 14:16:00,
2013-05-14 09:21:00,66.7,54.7,29.84,SW,218,8.0,11.0,65,0.00,,,0.00,meteohub,2013-05-14 14:21:00,
2013-05-14 09:26:00,67.5,55.2,29.83,WSW,247,8.0,11.0,65,0.00,,,0.00,meteohub,2013-05-14 14:26:00,
2013-05-14 09:31:00,67.6,54.7,29.83,SSW,203,0.0,11.0,63,0.00,,,0.00,meteohub,2013-05-14 14:31:00,
2013-05-14 09:36:00,68.2,55.6,29.83,SW,217,8.0,11.0,64,0.00,,,0.00,meteohub,2013-05-14 14:36:00,
2013-05-14 09:41:00,68.7,56.5,29.83,SW,215,0.0,12.0,65,0.00,,,0.00,meteohub,2013-05-14 14:41:00,
2013-05-14 09:46:00,68.7,55.6,29.82,West,263,0.0,12.0,63,0.00,,,0.00,meteohub,2013-05-14 14:46:00,
2013-05-14 09:51:00,69.4,55.4,29.82,SW,216,8.0,12.0,61,0.00,,,0.00,meteohub,2013-05-14 14:51:00,
2013-05-14 09:57:00,70.0,56.8,29.81,West,272,6.0,12.0,63,0.00,,,0.00,meteohub,2013-05-14 14:57:00,
2013-05-14 10:02:00,70.2,56.1,29.81,WSW,255,6.0,12.0,61,0.00,,,0.00,meteohub,2013-05-14 15:02:00,
2013-05-14 10:07:00,70.5,56.5,29.81,WSW,242,10.0,12.0,61,0.00,,,0.00,meteohub,2013-05-14 15:07:00,
2013-05-14 10:12:00,71.1,57.4,29.81,West,270,0.0,12.0,62,0.00,,,0.00,meteohub,2013-05-14 15:12:00,
2013-05-14 10:17:00,71.2,56.7,29.81,SW,235,9.0,13.0,60,0.00,,,0.00,meteohub,2013-05-14 15:17:00,
2013-05-14 10:22:00,72.0,57.4,29.81,NW,315,6.0,13.0,60,0.00,,,0.00,meteohub,2013-05-14 15:22:00,
2013-05-14 10:27:00,72.3,56.7,29.81,SSW,208,6.0,10.0,58,0.00,,,0.00,meteohub,2013-05-14 15:27:00,
2013-05-14 10:32:00,72.9,57.2,29.81,NW,310,5.0,13.0,58,0.00,,,0.00,meteohub,2013-05-14 15:32:00,
2013-05-14 10:37:00,73.0,57.4,29.81,NW,319,6.0,13.0,58,0.00,,,0.00,meteohub,2013-05-14 15:37:00,
2013-05-14 10:42:00,73.0,56.5,29.81,NW,305,5.0,13.0,56,0.00,,,0.00,meteohub,2013-05-14 15:42:00,
2013-05-14 10:47:00,73.6,57.4,29.81,NW,314,5.0,13.0,57,0.00,,,0.00,meteohub,2013-05-14 15:47:00,
2013-05-14 10:52:00,73.9,57.7,29.81,WNW,297,5.0,13.0,57,0.00,,,0.00,meteohub,2013-05-14 15:52:00,
2013-05-14 10:57:00,74.5,57.7,29.81,WNW,290,7.0,13.0,56,0.00,,,0.00,meteohub,2013-05-14 15:57:00,
2013-05-14 11:02:00,74.7,57.9,29.81,WNW,297,6.0,12.0,56,0.00,,,0.00,meteohub,2013-05-14 16:02:00,
2013-05-14 11:07:00,75.4,58.6,29.81,SW,222,0.0,12.0,56,0.00,,,0.00,meteohub,2013-05-14 16:07:00,
2013-05-14 11:12:00,76.1,58.8,29.81,SW,217,5.0,12.0,55,0.00,,,0.00,meteohub,2013-05-14 16:12:00,
2013-05-14 11:17:00,76.5,59.2,29.81,WNW,291,8.0,10.0,55,0.00,,,0.00,meteohub,2013-05-14 16:17:00,
2013-05-14 11:22:00,76.6,59.2,29.81,SSW,197,6.0,10.0,55,0.00,,,0.00,meteohub,2013-05-14 16:22:00,
2013-05-14 11:27:00,77.0,59.0,29.81,NW,321,6.0,10.0,54,0.00,,,0.00,meteohub,2013-05-14 16:27:00,
2013-05-14 11:32:00,77.4,59.4,29.81,SSW,202,6.0,10.0,54,0.00,,,0.00,meteohub,2013-05-14 16:32:00,
2013-05-14 11:37:00,77.5,58.5,29.81,NW,314,7.0,10.0,52,0.00,,,0.00,meteohub,2013-05-14 16:37:00,
2013-05-14 11:42:00,77.5,58.5,29.81,WSW,243,6.0,11.0,52,0.00,,,0.00,meteohub,2013-05-14 16:42:00,
2013-05-14 11:47:00,78.3,58.6,29.81,WNW,291,5.0,11.0,51,0.00,,,0.00,meteohub,2013-05-14 16:47:00,
2013-05-14 11:53:00,78.3,59.2,29.81,SW,217,0.0,11.0,52,0.00,,,0.00,meteohub,2013-05-14 16:53:00,
2013-05-14 11:58:00,78.6,60.1,29.80,SSW,193,0.0,11.0,53,0.00,,,0.00,meteohub,2013-05-14 16:58:00,
2013-05-14 12:03:00,79.2,59.5,29.80,NW,321,6.0,12.0,51,0.00,,,0.00,meteohub,2013-05-14 17:03:00,
2013-05-14 12:08:00,79.5,60.4,29.80,West,281,0.0,14.0,52,0.00,,,0.00,meteohub,2013-05-14 17:08:00,
2013-05-14 12:13:00,79.9,60.1,29.79,SSW,212,5.0,14.0,51,0.00,,,0.00,meteohub,2013-05-14 17:13:00,
2013-05-14 12:18:00,80.2,60.4,29.79,NW,305,5.0,14.0,51,0.00,,,0.00,meteohub,2013-05-14 17:18:00,
2013-05-14 12:23:00,80.6,60.3,29.79,NW,310,0.0,13.0,50,0.00,,,0.00,meteohub,2013-05-14 17:23:00,
2013-05-14 12:28:00,80.8,59.9,29.79,NNW,333,0.0,13.0,49,0.00,,,0.00,meteohub,2013-05-14 17:28:00,
2013-05-14 12:33:00,81.0,59.4,29.79,SW,216,5.0,11.0,48,0.00,,,0.00,meteohub,2013-05-14 17:33:00,
2013-05-14 12:38:00,81.7,60.6,29.79,SW,224,10.0,10.0,49,0.00,,,0.00,meteohub,2013-05-14 17:38:00,
2013-05-14 12:43:00,81.9,59.7,29.79,SW,220,0.0,12.0,47,0.00,,,0.00,meteohub,2013-05-14 17:43:00,
2013-05-14 12:48:00,81.7,61.2,29.79,WSW,237,0.0,12.0,50,0.00,,,0.00,meteohub,2013-05-14 17:48:00,
2013-05-14 12:53:00,82.0,60.4,29.79,NW,307,5.0,12.0,48,0.00,,,0.00,meteohub,2013-05-14 17:53:00,
2013-05-14 12:58:00,81.7,60.1,29.79,WSW,238,9.0,10.0,48,0.00,,,0.00,meteohub,2013-05-14 17:58:00,
2013-05-14 13:03:00,82.0,60.4,29.79,SSW,201,9.0,10.0,48,0.00,,,0.00,meteohub,2013-05-14 18:03:00,
2013-05-14 13:09:00,82.8,62.2,29.79,WSW,242,5.0,12.0,50,0.00,,,0.00,meteohub,2013-05-14 18:09:00,
2013-05-14 13:14:00,83.1,61.3,29.79,WSW,251,6.0,12.0,48,0.00,,,0.00,meteohub,2013-05-14 18:14:00,
2013-05-14 13:19:00,82.6,61.5,29.79,WSW,256,5.0,10.0,49,0.00,,,0.00,meteohub,2013-05-14 18:19:00,
2013-05-14 13:24:00,83.1,61.3,29.78,NW,315,5.0,12.0,48,0.00,,,0.00,meteohub,2013-05-14 18:24:00,
2013-05-14 13:29:00,83.8,61.5,29.78,SW,226,0.0,12.0,47,0.00,,,0.00,meteohub,2013-05-14 18:29:00,
2013-05-14 13:34:00,84.4,61.3,29.78,West,261,6.0,10.0,46,0.00,,,0.00,meteohub,2013-05-14 18:34:00,
2013-05-14 13:39:00,84.2,62.4,29.78,SW,228,5.0,15.0,48,0.00,,,0.00,meteohub,2013-05-14 18:39:00,
2013-05-14 13:44:00,84.6,60.8,29.78,WNW,302,6.0,15.0,45,0.00,,,0.00,meteohub,2013-05-14 18:44:00,
2013-05-14 13:49:00,84.2,61.2,29.78,West,276,5.0,15.0,46,0.00,,,0.00,meteohub,2013-05-14 18:49:00,
2013-05-14 13:54:00,84.6,62.1,29.78,NNW,341,5.0,10.0,47,0.00,,,0.00,meteohub,2013-05-14 18:54:00,
2013-05-14 13:59:00,84.7,61.7,29.78,SW,215,0.0,10.0,46,0.00,,,0.00,meteohub,2013-05-14 18:59:00,
2013-05-14 14:04:00,85.3,61.5,29.78,SSW,213,7.0,12.0,45,0.00,,,0.00,meteohub,2013-05-14 19:04:00,
2013-05-14 14:09:00,85.6,63.1,29.77,SSW,211,7.0,12.0,47,0.00,,,0.00,meteohub,2013-05-14 19:09:00,
2013-05-14 14:14:00,85.6,63.7,29.77,NW,313,5.0,12.0,48,0.00,,,0.00,meteohub,2013-05-14 19:14:00,
2013-05-14 14:19:00,86.0,63.5,29.77,WNW,302,6.0,11.0,47,0.00,,,0.00,meteohub,2013-05-14 19:19:00,
2013-05-14 14:24:00,85.8,62.1,29.77,SW,222,5.0,10.0,45,0.00,,,0.00,meteohub,2013-05-14 19:24:00,
2013-05-14 14:29:00,85.8,63.3,29.77,West,275,7.0,10.0,47,0.00,,,0.00,meteohub,2013-05-14 19:29:00,
2013-05-14 14:34:00,85.8,62.1,29.77,SW,230,5.0,10.0,45,0.00,,,0.00,meteohub,2013-05-14 19:34:00,
2013-05-14 14:39:00,86.5,62.1,29.76,SW,221,8.0,10.0,44,0.00,,,0.00,meteohub,2013-05-14 19:39:00,
2013-05-14 14:44:00,86.7,62.2,29.76,SW,215,9.0,10.0,44,0.00,,,0.00,meteohub,2013-05-14 19:44:00,
2013-05-14 14:49:00,86.4,63.1,29.76,SW,233,5.0,10.0,46,0.00,,,0.00,meteohub,2013-05-14 19:49:00,
2013-05-14 14:54:00,86.4,61.9,29.76,West,274,0.0,12.0,44,0.00,,,0.00,meteohub,2013-05-14 19:54:00,
2013-05-14 14:59:00,86.5,62.1,29.76,WSW,240,8.0,12.0,44,0.00,,,0.00,meteohub,2013-05-14 19:59:00,
2013-05-14 15:05:00,86.5,62.1,29.76,SW,230,6.0,10.0,44,0.00,,,0.00,meteohub,2013-05-14 20:05:00,
2013-05-14 15:10:00,87.1,61.9,29.76,SSW,210,0.0,12.0,43,0.00,,,0.00,meteohub,2013-05-14 20:10:00,
2013-05-14 15:15:00,87.3,63.3,29.75,SW,230,5.0,12.0,45,0.00,,,0.00,meteohub,2013-05-14 20:15:00,
2013-05-14 15:20:00,87.1,61.2,29.75,SW,221,5.0,12.0,42,0.00,,,0.00,meteohub,2013-05-14 20:20:00,
2013-05-14 15:25:00,87.4,61.5,29.75,WSW,242,10.0,14.0,42,0.00,,,0.00,meteohub,2013-05-14 20:25:00,
2013-05-14 15:30:00,87.3,62.6,29.75,West,280,0.0,14.0,44,0.00,,,0.00,meteohub,2013-05-14 20:30:00,
2013-05-14 15:35:00,87.6,64.2,29.75,WNW,284,0.0,14.0,46,0.00,,,0.00,meteohub,2013-05-14 20:35:00,
2013-05-14 15:40:00,87.6,63.0,29.74,NW,320,7.0,12.0,44,0.00,,,0.00,meteohub,2013-05-14 20:40:00,
2013-05-14 15:45:00,87.6,62.4,29.74,West,271,5.0,11.0,43,0.00,,,0.00,meteohub,2013-05-14 20:45:00,
2013-05-14 15:50:00,87.8,63.1,29.74,SW,222,7.0,11.0,44,0.00,,,0.00,meteohub,2013-05-14 20:50:00,
2013-05-14 15:55:00,88.2,62.8,29.74,WSW,243,0.0,13.0,43,0.00,,,0.00,meteohub,2013-05-14 20:55:00,
2013-05-14 16:00:00,88.3,61.0,29.74,SW,218,6.0,13.0,40,0.00,,,0.00,meteohub,2013-05-14 21:00:00,
2013-05-14 16:05:00,88.3,61.0,29.74,West,278,5.0,13.0,40,0.00,,,0.00,meteohub,2013-05-14 21:05:00,
2013-05-14 16:10:00,88.7,61.3,29.74,SW,232,5.0,14.0,40,0.00,,,0.00,meteohub,2013-05-14 21:10:00,
2013-05-14 16:15:00,88.5,61.2,29.74,SSW,211,0.0,14.0,40,0.00,,,0.00,meteohub,2013-05-14 21:15:00,
2013-05-14 16:20:00,88.5,61.9,29.73,WNW,294,7.0,14.0,41,0.00,,,0.00,meteohub,2013-05-14 21:20:00,
2013-05-14 16:25:00,88.5,61.9,29.73,WSW,250,5.0,13.0,41,0.00,,,0.00,meteohub,2013-05-14 21:25:00,
2013-05-14 16:30:00,88.3,61.7,29.73,WSW,237,5.0,13.0,41,0.00,,,0.00,meteohub,2013-05-14 21:30:00,
2013-05-14 16:35:00,88.5,62.4,29.73,WSW,239,8.0,13.0,42,0.00,,,0.00,meteohub,2013-05-14 21:35:00,
2013-05-14 16:40:00,88.5,61.2,29.73,WSW,247,0.0,10.0,40,0.00,,,0.00,meteohub,2013-05-14 21:40:00,
2013-05-14 16:45:00,88.5,62.4,29.73,West,279,6.0,10.0,42,0.00,,,0.00,meteohub,2013-05-14 21:45:00,
2013-05-14 16:50:00,88.9,62.1,29.73,SW,220,5.0,13.0,41,0.00,,,0.00,meteohub,2013-05-14 21:50:00,
2013-05-14 16:55:00,88.5,62.4,29.73,SW,218,5.0,13.0,42,0.00,,,0.00,meteohub,2013-05-14 21:55:00,
2013-05-14 17:01:00,88.3,66.2,29.72,WNW,303,5.0,13.0,48,0.00,,,0.00,meteohub,2013-05-14 22:01:00,
2013-05-14 17:06:00,88.2,64.2,29.72,SW,232,5.0,13.0,45,0.00,,,0.00,meteohub,2013-05-14 22:06:00,
2013-05-14 17:11:00,88.3,61.0,29.72,West,260,0.0,9.0,40,0.00,,,0.00,meteohub,2013-05-14 22:11:00,
2013-05-14 17:16:00,88.5,61.9,29.72,SSW,203,0.0,14.0,41,0.00,,,0.00,meteohub,2013-05-14 22:16:00,
2013-05-14 17:21:00,88.5,59.7,29.72,SW,236,8.0,14.0,38,0.00,,,0.00,meteohub,2013-05-14 22:21:00,
2013-05-14 17:26:00,88.5,63.1,29.72,SW,226,0.0,14.0,43,0.00,,,0.00,meteohub,2013-05-14 22:26:00,
2013-05-14 17:31:00,88.3,64.2,29.72,SW,218,0.0,12.0,45,0.00,,,0.00,meteohub,2013-05-14 22:31:00,
2013-05-14 17:36:00,88.5,61.2,29.72,SSW,207,5.0,14.0,40,0.00,,,0.00,meteohub,2013-05-14 22:36:00,
2013-05-14 17:41:00,88.5,62.4,29.71,SSW,205,9.0,14.0,42,0.00,,,0.00,meteohub,2013-05-14 22:41:00,
2013-05-14 17:46:00,88.2,61.5,29.71,SW,218,0.0,14.0,41,0.00,,,0.00,meteohub,2013-05-14 22:46:00,
2013-05-14 17:51:00,88.0,64.0,29.70,WSW,238,0.0,12.0,45,0.00,,,0.00,meteohub,2013-05-14 22:51:00,
2013-05-14 17:56:00,88.0,62.1,29.70,WSW,239,0.0,12.0,42,0.00,,,0.00,meteohub,2013-05-14 22:56:00,
2013-05-14 18:01:00,87.6,63.0,29.70,SSW,199,7.0,11.0,44,0.00,,,0.00,meteohub,2013-05-14 23:01:00,
2013-05-14 18:06:00,87.8,64.4,29.70,SSW,205,0.0,11.0,46,0.00,,,0.00,meteohub,2013-05-14 23:06:00,
2013-05-14 18:11:00,86.7,63.5,29.70,SW,219,6.0,12.0,46,0.00,,,0.00,meteohub,2013-05-14 23:11:00,
2013-05-14 18:16:00,86.9,63.0,29.70,South,189,0.0,14.0,45,0.00,,,0.00,meteohub,2013-05-14 23:16:00,
2013-05-14 18:21:00,86.9,64.2,29.70,West,274,8.0,15.0,47,0.00,,,0.00,meteohub,2013-05-14 23:21:00,
2013-05-14 18:26:00,86.4,63.1,29.69,NW,319,0.0,15.0,46,0.00,,,0.00,meteohub,2013-05-14 23:26:00,
2013-05-14 18:31:00,86.2,61.7,29.69,SSW,209,9.0,15.0,44,0.00,,,0.00,meteohub,2013-05-14 23:31:00,
2013-05-14 18:36:00,86.5,62.1,29.69,SSW,208,0.0,18.0,44,0.00,,,0.00,meteohub,2013-05-14 23:36:00,
2013-05-14 18:41:00,86.2,62.4,29.69,SW,222,8.0,18.0,45,0.00,,,0.00,meteohub,2013-05-14 23:41:00,
2013-05-14 18:46:00,85.6,61.9,29.69,West,269,5.0,18.0,45,0.00,,,0.00,meteohub,2013-05-14 23:46:00,
2013-05-14 18:51:00,84.9,61.9,29.69,SSW,209,8.0,11.0,46,0.00,,,0.00,meteohub,2013-05-14 23:51:00,
2013-05-14 18:57:00,85.3,62.8,29.69,WSW,252,0.0,11.0,47,0.00,,,0.00,meteohub,2013-05-14 23:57:00,
2013-05-14 19:02:00,84.9,61.9,29.69,South,181,0.0,12.0,46,0.00,,,0.00,meteohub,2013-05-15 00:02:00,
2013-05-14 19:07:00,84.9,61.9,29.69,SW,233,0.0,15.0,46,0.00,,,0.00,meteohub,2013-05-15 00:07:00,
2013-05-14 19:12:00,84.7,61.0,29.69,SW,229,0.0,15.0,45,0.00,,,0.00,meteohub,2013-05-15 00:12:00,
2013-05-14 19:17:00,84.6,62.1,29.69,SW,216,0.0,13.0,47,0.00,,,0.00,meteohub,2013-05-15 00:17:00,
2013-05-14 19:22:00,84.0,61.7,29.69,SW,215,5.0,11.0,47,0.00,,,0.00,meteohub,2013-05-15 00:22:00,
2013-05-14 19:27:00,84.0,61.0,29.69,SSW,199,0.0,11.0,46,0.00,,,0.00,meteohub,2013-05-15 00:27:00,
2013-05-14 19:32:00,83.3,61.5,29.69,SSW,197,0.0,14.0,48,0.00,,,0.00,meteohub,2013-05-15 00:32:00,
2013-05-14 19:37:00,83.3,61.5,29.69,SW,214,0.0,14.0,48,0.00,,,0.00,meteohub,2013-05-15 00:37:00,
2013-05-14 19:42:00,82.9,61.2,29.69,SW,214,0.0,14.0,48,0.00,,,0.00,meteohub,2013-05-15 00:42:00,
2013-05-14 19:47:00,82.8,60.4,29.69,SSW,211,0.0,13.0,47,0.00,,,0.00,meteohub,2013-05-15 00:47:00,
2013-05-14 19:52:00,82.6,60.3,29.69,SSW,209,0.0,10.0,47,0.00,,,0.00,meteohub,2013-05-15 00:52:00,
2013-05-14 19:57:00,82.2,60.6,29.69,SSW,200,6.0,10.0,48,0.00,,,0.00,meteohub,2013-05-15 00:57:00,
2013-05-14 20:02:00,82.2,60.6,29.69,SSW,212,5.0,10.0,48,0.00,,,0.00,meteohub,2013-05-15 01:02:00,
2013-05-14 20:07:00,81.5,60.4,29.69,SW,218,0.0,9.0,49,0.00,,,0.00,meteohub,2013-05-15 01:07:00,
2013-05-14 20:12:00,81.3,60.3,29.69,SW,234,0.0,9.0,49,0.00,,,0.00,meteohub,2013-05-15 01:12:00,
2013-05-14 20:17:00,81.1,59.5,29.69,SSW,205,0.0,10.0,48,0.00,,,0.00,meteohub,2013-05-15 01:17:00,
2013-05-14 20:22:00,81.0,58.8,29.69,SSW,213,0.0,10.0,47,0.00,,,0.00,meteohub,2013-05-15 01:22:00,
2013-05-14 20:27:00,80.2,59.4,29.70,SSW,213,0.0,10.0,49,0.00,,,0.00,meteohub,2013-05-15 01:27:00,
2013-05-14 20:32:00,79.9,59.0,29.69,SSW,213,0.0,10.0,49,0.00,,,0.00,meteohub,2013-05-15 01:32:00,
2013-05-14 20:37:00,79.9,59.0,29.70,SSW,213,0.0,5.0,49,0.00,,,0.00,meteohub,2013-05-15 01:37:00,
2013-05-14 20:42:00,79.7,58.8,29.70,SSW,209,0.0,6.0,49,0.00,,,0.00,meteohub,2013-05-15 01:42:00,
2013-05-14 20:47:00,79.2,58.3,29.70,South,190,6.0,6.0,49,0.00,,,0.00,meteohub,2013-05-15 01:47:00,
2013-05-14 20:52:00,79.2,58.3,29.70,South,190,0.0,8.0,49,0.00,,,0.00,meteohub,2013-05-15 01:52:00,
2013-05-14 20:57:00,78.8,58.6,29.70,South,190,0.0,8.0,50,0.00,,,0.00,meteohub,2013-05-15 01:57:00,
2013-05-14 21:02:00,78.3,58.1,29.70,SW,220,0.0,8.0,50,0.00,,,0.00,meteohub,2013-05-15 02:02:00,
2013-05-14 21:07:00,78.1,57.9,29.70,SW,220,0.0,6.0,50,0.00,,,0.00,meteohub,2013-05-15 02:07:00,
2013-05-14 21:12:00,78.1,57.9,29.70,SSW,197,0.0,6.0,50,0.00,,,0.00,meteohub,2013-05-15 02:12:00,
2013-05-14 21:17:00,77.9,58.3,29.71,SW,234,0.0,5.0,51,0.00,,,0.00,meteohub,2013-05-15 02:17:00,
2013-05-14 21:22:00,77.9,57.7,29.71,SW,233,0.0,6.0,50,0.00,,,0.00,meteohub,2013-05-15 02:22:00,
2013-05-14 21:27:00,78.1,57.9,29.71,SW,230,6.0,6.0,50,0.00,,,0.00,meteohub,2013-05-15 02:27:00,
2013-05-14 21:32:00,78.1,58.5,29.71,SSW,205,6.0,9.0,51,0.00,,,0.00,meteohub,2013-05-15 02:32:00,
2013-05-14 21:37:00,77.7,58.1,29.71,SSW,207,0.0,10.0,51,0.00,,,0.00,meteohub,2013-05-15 02:37:00,
2013-05-14 21:42:00,77.4,57.7,29.71,SSW,205,0.0,10.0,51,0.00,,,0.00,meteohub,2013-05-15 02:42:00,
2013-05-14 21:47:00,77.4,57.7,29.71,SSW,209,0.0,10.0,51,0.00,,,0.00,meteohub,2013-05-15 02:47:00,
2013-05-14 21:52:00,77.2,57.7,29.71,SW,217,0.0,9.0,51,0.00,,,0.00,meteohub,2013-05-15 02:52:00,
2013-05-14 21:57:00,77.2,57.7,29.72,SSW,196,0.0,9.0,51,0.00,,,0.00,meteohub,2013-05-15 02:57:00,
2013-05-14 22:02:00,76.6,57.7,29.72,SW,232,5.0,8.0,52,0.00,,,0.00,meteohub,2013-05-15 03:02:00,
2013-05-14 22:07:00,76.8,57.4,29.72,SSW,208,5.0,9.0,51,0.00,,,0.00,meteohub,2013-05-15 03:07:00,
2013-05-14 22:12:00,77.2,57.0,29.72,SW,214,5.0,12.0,50,0.00,,,0.00,meteohub,2013-05-15 03:12:00,
2013-05-14 22:17:00,77.4,57.2,29.72,SW,233,0.0,12.0,50,0.00,,,0.00,meteohub,2013-05-15 03:17:00,
2013-05-14 22:22:00,77.2,57.7,29.72,WSW,240,0.0,10.0,51,0.00,,,0.00,meteohub,2013-05-15 03:22:00,
2013-05-14 22:27:00,77.2,57.0,29.72,SW,214,0.0,13.0,50,0.00,,,0.00,meteohub,2013-05-15 03:27:00,
2013-05-14 22:32:00,77.2,57.0,29.72,WSW,244,6.0,13.0,50,0.00,,,0.00,meteohub,2013-05-15 03:32:00,
2013-05-14 22:37:00,77.4,56.7,29.72,WSW,242,0.0,13.0,49,0.00,,,0.00,meteohub,2013-05-15 03:37:00,
2013-05-14 22:42:00,77.0,57.0,29.72,SSW,208,0.0,10.0,50,0.00,,,0.00,meteohub,2013-05-15 03:42:00,
2013-05-14 22:47:00,76.5,56.5,29.72,SSW,208,5.0,9.0,50,0.00,,,0.00,meteohub,2013-05-15 03:47:00,
2013-05-14 22:52:00,76.3,56.8,29.72,SW,217,9.0,11.0,51,0.00,,,0.00,meteohub,2013-05-15 03:52:00,
2013-05-14 22:57:00,76.3,56.8,29.72,SW,217,0.0,11.0,51,0.00,,,0.00,meteohub,2013-05-15 03:57:00,
2013-05-14 23:01:00,76.3,57.4,29.71,West,266,0.0,11.0,52,0.00,,,0.00,meteohub,2013-05-15 04:01:00,
2013-05-14 23:02:00,76.1,56.7,29.71,West,266,0.0,11.0,51,0.00,,,0.00,meteohub,2013-05-15 04:02:00,
2013-05-14 23:03:00,76.1,56.7,29.71,West,266,0.0,11.0,51,0.00,,,0.00,meteohub,2013-05-15 04:03:00,
2013-05-14 23:07:00,76.5,56.5,29.71,SSW,209,5.0,10.0,50,0.00,,,0.00,meteohub,2013-05-15 04:07:00,
2013-05-14 23:12:00,76.5,57.0,29.71,West,276,0.0,10.0,51,0.00,,,0.00,meteohub,2013-05-15 04:12:00,
2013-05-14 23:17:00,76.5,56.5,29.71,SW,218,5.0,10.0,50,0.00,,,0.00,meteohub,2013-05-15 04:17:00,
2013-05-14 23:22:00,76.6,56.7,29.71,WSW,255,0.0,10.0,50,0.00,,,0.00,meteohub,2013-05-15 04:22:00,
2013-05-14 23:27:00,76.8,56.8,29.72,West,262,5.0,9.0,50,0.00,,,0.00,meteohub,2013-05-15 04:27:00,
2013-05-14 23:32:00,76.6,56.7,29.72,WSW,257,5.0,9.0,50,0.00,,,0.00,meteohub,2013-05-15 04:32:00,
2013-05-14 23:37:00,76.5,56.5,29.72,WNW,292,5.0,9.0,50,0.00,,,0.00,meteohub,2013-05-15 04:37:00,
2013-05-14 23:42:00,76.5,56.5,29.72,SW,230,6.0,9.0,50,0.00,,,0.00,meteohub,2013-05-15 04:42:00,
2013-05-14 23:47:00,76.6,56.1,29.72,West,263,0.0,10.0,49,0.00,,,0.00,meteohub,2013-05-15 04:47:00,
2013-05-14 23:52:00,77.0,56.3,29.72,WSW,255,5.0,10.0,49,0.00,,,0.00,meteohub,2013-05-15 04:52:00,
2013-05-14 23:57:00,77.0,56.3,29.72,NNW,328,0.0,10.0,49,0.00,,,0.00,meteohub,2013-05-15 04:57:00,